KBIS

Bismarck Municipal Airport

Bismarck, North Dakota, USA
METAR KBIS 190452Z AUTO 00000KT 10SM CLR 09/07 A3007 RMK AO2 SLP188 T00940067
Observed Flight Rules
Sep-19 @ 04:52 UTC (60 minutes ago) Visual Flight Rules
Visibility Clouds
10 miles
  • Clear skies
Temperatures Readings
Current 9°C / 48°F
Dewpoint 7°C / 45°F
Humidity 87%
Altimeter 30.07" Hg
Pressure 1018.8 hPa
Elevation 505
METAR KBIS 190452Z AUTO 00000KT 10SM CLR 09/07 A3007 RMK AO2 SLP188 T00940067
Observed Flight Rules
Sep-19 @ 04:52 UTC
(60 minutes ago)
VFR
Clouds
  • Clear skies
Temperature Dewpoint
9°C / 48°F 7°C / 45°F
Humidity Altimeter Pressure
87% 30.07" Hg 1018.8 hPa